Latest Weather Observations for Bombala AWS

IDN60801

Issued at 5:03 pm EST Wednesday 29 June 2016 (issued every 30 minutes, with the page automatically refreshed every 10 minutes)

About weather observations | Map of weather stations | Latest weather observations for NSW | Other Formats
Station Details ID: 070328 Name: BOMBALA AWS Lat: -37.00 Lon: 149.23 Height: 760.5 m
Data from the previous 72 hours. | See also: Recent months at Bombala AWS
Date/Time
EST
Temp
°C
App
Temp
°C
Dew
Point
°C
Rel
Hum
%
Delta-T
°C
Wind Press
QNH
hPa
Press
MSL
hPa
Rain since
9am
mm
Dir  Spd
km/h
Gust
km/h
Spd
kts
Gust
kts
29/05:00pm 8.3 5.6 3.6 72 2.1 ENE 7 13 4 7 1023.9 1025.1 0.0
29/04:30pm 10.0 8.3 1.6 56 3.7 CALM 0 0 0 0 1024.1 1025.3 0.0
29/04:00pm 10.8 9.1 2.1 55 3.9 CALM 0 4 0 2 1024.3 1025.5 0.0
29/03:30pm 11.8 9.1 2.5 53 4.2 NW 6 7 3 4 1024.3 1025.5 0.0
29/03:00pm 11.4 8.5 2.4 54 4.0 N 7 11 4 6 1024.3 1025.5 0.0
29/02:30pm 12.3 10.2 3.8 56 4.0 NW 4 9 2 5 1024.3 1025.5 0.0
29/02:00pm 11.2 8.6 3.0 57 3.7 WNW 6 9 3 5 1024.5 1025.7 0.0
29/01:30pm 11.2 8.6 3.0 57 3.7 SW 6 15 3 8 1024.7 1025.9 0.0
29/01:00pm 10.9 8.0 2.5 56 3.8 W 7 13 4 7 1025.0 1026.3 0.0
29/12:30pm 10.3 6.2 2.4 58 3.5 WNW 13 19 7 10 1025.6 1026.8 0.0
29/12:00pm 10.0 6.0 3.1 62 3.1 NW 13 17 7 9 1026.0 1027.2 0.0
29/11:30am 9.0 5.4 2.8 65 2.8 NNW 11 15 6 8 1026.5 1027.8 0.0
29/11:00am 7.8 3.4 2.9 71 2.1 NW 15 17 8 9 1027.1 1028.3 0.0
29/10:30am 6.5 2.4 2.2 74 1.8 NW 13 19 7 10 1027.4 1028.7 0.0
29/10:00am 5.6 2.5 3.4 86 1.0 N 9 13 5 7 1027.6 1028.9 0.0
29/09:30am 4.5 1.2 2.2 85 1.0 NW 9 11 5 6 1027.7 1029.0 0.0
29/09:00am 3.0 0.7 2.9 99 0.0 NNW 4 9 2 5 1027.4 1028.7 0.0
29/08:30am 0.8 -2.8 0.7 99 0.0 W 9 11 5 6 1027.3 1028.6 0.0
29/08:00am -0.9 -4.2 -0.9 100 0.0 NW 6 7 3 4 1027.1 1028.3 0.0
29/07:30am -1.7 -5.1 -1.8 99 0.0 NNW 6 7 3 4 1027.0 1028.2 0.0
29/07:00am -0.9 -4.2 -1.0 99 0.0 N 6 6 3 3 1026.7 1027.9 0.0
29/06:30am -0.4 -3.8 -0.4 100 0.0 N 7 9 4 5 1026.3 1027.6 0.0
29/06:00am -0.4 -3.6 -0.4 100 0.0 N 6 6 3 3 1026.1 1027.4 0.0
29/05:30am -0.1 -2.9 -0.1 100 0.0 NNW 4 9 2 5 1025.9 1027.1 0.0
29/05:00am -0.4 -3.2 -0.5 99 0.0 W 4 4 2 2 1025.8 1027.0 0.0
29/04:30am 0.1 -3.6 0.1 100 0.0 WNW 9 13 5 7 1025.6 1026.8 0.0
29/04:00am -0.2 -3.5 -0.2 100 0.0 WNW 7 11 4 6 1025.5 1026.7 0.0
29/03:30am 0.6 -2.6 0.5 99 0.0 WNW 7 9 4 5 1025.5 1026.7 0.0
29/03:00am 1.3 -1.6 1.2 99 0.0 NNW 6 11 3 6 1025.5 1026.7 0.0
29/02:30am 0.9 -2.1 0.9 100 0.0 NW 6 11 3 6 1025.6 1026.8 0.0
29/02:00am 0.3 -2.8 0.2 99 0.0 N 6 15 3 8 1025.7 1026.9 0.0
29/01:30am 0.8 -2.8 0.7 99 0.0 N 9 9 5 5 1025.8 1027.0 0.0
29/01:00am 1.2 -2.3 1.1 99 0.0 N 9 11 5 6 1025.9 1027.1 0.0
29/12:30am 1.3 -2.2 1.2 99 0.0 N 9 11 5 6 1025.8 1027.0 0.0
29/12:00am 2.2 -0.8 2.1 99 0.0 N 7 7 4 4 1026.0 1027.2 0.0
 
Date/Time
EST
Temp
°C
App
Temp
°C
Dew
Point
°C
Rel
Hum
%
Delta-T
°C
Wind Press
QNH
hPa
Press
MSL
hPa
Rain since
9am
mm
Dir  Spd
km/h
Gust
km/h
Spd
kts
Gust
kts
28/11:30pm 1.9 -1.1 1.8 99 0.0 NNW 7 11 4 6 1026.0 1027.2 0.0
28/11:00pm 2.3 -0.5 2.2 99 0.0 NW 6 7 3 4 1026.1 1027.4 0.0
28/10:30pm 2.9 -0.3 2.8 99 0.0 NW 9 11 5 6 1026.1 1027.4 0.0
28/10:00pm 2.9 0.6 2.8 99 0.0 WNW 4 6 2 3 1026.0 1027.2 0.0
28/09:30pm 2.7 0.4 2.6 99 0.0 WNW 4 6 2 3 1025.9 1027.1 0.0
28/09:00pm 3.5 1.7 3.4 99 0.0 N 2 4 1 2 1025.6 1026.8 0.0
28/08:30pm 2.8 0.1 2.7 99 0.0 NNE 6 6 3 3 1025.4 1026.6 0.0
28/08:00pm 2.6 -0.1 2.5 99 0.0 NNW 6 7 3 4 1025.4 1026.6 0.0
28/07:30pm 2.3 0.3 2.2 99 0.0 W 2 6 1 3 1024.9 1026.1 0.0
28/07:00pm 3.3 0.1 3.2 99 0.0 WNW 9 11 5 6 1024.5 1025.7 0.0
28/06:30pm 3.2 0.2 2.3 94 0.4 W 7 9 4 5 1024.3 1025.5 0.0
28/06:00pm 5.0 2.4 3.2 88 0.8 WSW 6 7 3 4 1024.1 1025.3 0.0
28/05:30pm 6.2 4.7 2.8 79 1.5 CALM 0 0 0 0 1023.7 1024.9 0.0
28/05:00pm 7.8 5.9 2.9 71 2.2 WSW 2 4 1 2 1023.6 1024.8 0.0
28/04:30pm 8.3 5.6 2.8 68 2.4 WSW 6 7 3 4 1023.5 1024.7 0.0
28/04:00pm 9.4 5.8 3.2 65 2.8 SW 11 17 6 9 1023.3 1024.5 0.0
28/03:30pm 10.0 5.7 3.3 63 3.0 SW 15 22 8 12 1022.9 1024.1 0.0
28/03:00pm 9.0 3.6 2.6 64 2.8 WSW 20 24 11 13 1022.6 1023.7 0.0
28/02:30pm 10.1 4.3 2.5 59 3.4 SW 22 28 12 15 1022.3 1023.5 0.0
28/02:00pm 10.5 5.3 2.6 58 3.5 WSW 19 26 10 14 1022.2 1023.4 0.0
28/01:30pm 10.1 4.9 2.2 58 3.5 WSW 19 26 10 14 1022.1 1023.3 0.0
28/01:00pm 9.6 4.1 2.0 59 3.3 WSW 20 28 11 15 1022.1 1023.3 0.0
28/12:30pm 9.1 3.9 2.4 63 3.0 WSW 19 28 10 15 1022.1 1023.3 0.0
28/12:00pm 8.6 2.9 2.6 66 2.6 WSW 22 32 12 17 1022.5 1023.6 0.0
28/11:30am 8.1 2.8 3.0 70 2.3 W 20 32 11 17 1022.7 1023.8 0.0
28/11:00am 6.8 2.0 2.5 74 1.9 W 17 22 9 12 1022.8 1024.0 0.0
28/10:30am 6.0 1.4 1.7 74 1.8 WNW 15 20 8 11 1023.0 1024.2 0.0
28/10:00am 4.5 1.4 3.8 95 0.3 NNW 9 13 5 7 1022.9 1024.1 0.0
28/09:30am 3.1 0.3 3.0 99 0.0 N 7 9 4 5 1022.7 1023.8 0.0
28/09:00am 1.9 -1.5 1.9 100 0.0 N 9 13 5 7 1022.5 1023.6 0.0
28/08:30am -0.1 -4.2 -0.1 100 0.0 NNW 11 13 6 7 1022.0 1023.2 0.0
28/08:00am -0.7 -3.5 -0.7 100 0.0 NW 4 6 2 3 1021.8 1023.0 0.0
28/07:30am -1.2 -4.5 -1.2 100 0.0 NW 6 6 3 3 1021.5 1022.6 0.0
28/07:00am -0.8 -4.0 -0.8 100 0.0 NW 6 7 3 4 1021.1 1022.2 0.0
28/06:30am -0.6 -3.4 -0.6 100 0.0 W 4 6 2 3 1020.7 1021.9 0.0
28/06:00am -0.7 -3.5 -0.7 100 0.0 W 4 4 2 2 1020.2 1021.3 0.0
28/05:30am 0.7 -2.5 0.7 100 0.0 WNW 7 9 4 5 1019.9 1021.0 0.0
28/05:00am -0.2 -2.2 -0.2 100 0.0 CALM 0 2 0 1 1019.6 1020.7 0.0
28/04:30am -0.4 -3.6 -0.4 100 0.0 WNW 6 9 3 5 1019.3 1020.4 0.0
28/04:00am 1.0 -2.9 1.0 100 0.0 WNW 11 13 6 7 1019.1 1020.2 0.0
28/03:30am 0.6 -3.0 0.6 100 0.0 WNW 9 13 5 7 1019.4 1020.6 0.0
28/03:00am 1.2 -1.7 1.2 100 0.0 WNW 6 7 3 4 1019.4 1020.6 0.0
28/02:30am 2.0 -0.4 2.0 100 0.0 W 4 9 2 5 1019.2 1020.3 0.0
28/02:00am 2.5 0.2 2.5 100 0.0 WSW 4 6 2 3 1019.0 1020.1 0.0
28/01:30am 2.7 0.0 2.7 100 0.0 NW 6 7 3 4 1018.8 1019.9 0.0
28/01:00am 2.3 -0.5 2.3 100 0.0 NNW 6 7 3 4 1018.9 1020.0 0.0
28/12:30am 3.0 0.2 3.0 100 0.0 NW 7 9 4 5 1019.0 1020.1 0.0
28/12:00am 3.6 0.9 3.6 100 0.0 WNW 7 13 4 7 1018.9 1020.0 0.0
 
Date/Time
EST
Temp
°C
App
Temp
°C
Dew
Point
°C
Rel
Hum
%
Delta-T
°C
Wind Press
QNH
hPa
Press
MSL
hPa
Rain since
9am
mm
Dir  Spd
km/h
Gust
km/h
Spd
kts
Gust
kts
27/11:30pm 3.4 1.2 3.4 100 0.0 WNW 4 7 2 4 1018.9 1020.0 0.0
27/11:00pm 3.0 0.7 3.0 100 0.0 NW 4 6 2 3 1018.7 1019.8 0.0
27/10:30pm 2.6 -0.3 2.6 100 0.0 NW 7 9 4 5 1018.8 1019.9 0.0
27/10:00pm 2.6 1.0 2.6 100 0.0 CALM 0 4 0 2 1018.6 1019.7 0.0
27/09:30pm 2.0 -0.8 2.0 100 0.0 NW 6 7 3 4 1018.3 1019.3 0.0
27/09:00pm 1.9 -1.1 1.9 100 0.0 NW 7 11 4 6 1018.2 1019.2 0.0
27/08:30pm 1.9 -1.1 1.8 99 0.0 NNW 7 9 4 5 1018.2 1019.2 0.0
27/08:00pm 3.2 0.6 3.1 99 0.0 W 6 7 3 4 1017.8 1018.9 0.0
27/07:30pm 3.5 0.4 3.4 99 0.0 WSW 9 11 5 6 1017.6 1018.7 0.0
27/07:00pm 3.3 0.1 3.2 99 0.0 WSW 9 11 5 6 1017.3 1018.4 0.0
27/06:30pm 2.5 0.1 2.1 97 0.2 WSW 4 6 2 3 1017.1 1018.1 0.0
27/06:00pm 3.6 1.2 2.3 91 0.5 WSW 4 4 2 2 1016.9 1017.9 0.0
27/05:30pm 3.7 0.3 2.1 89 0.7 WSW 9 13 5 7 1016.3 1017.4 0.0
27/05:00pm 4.5 0.3 1.9 83 1.1 WSW 13 17 7 9 1016.1 1017.2 0.0
27/04:30pm 6.1 1.5 1.8 74 1.8 WSW 15 19 8 10 1015.5 1016.5 0.0
27/04:00pm 7.2 2.2 1.1 65 2.6 WSW 17 24 9 13 1014.9 1015.9 0.0
27/03:30pm 7.3 2.1 0.3 61 2.9 WSW 17 22 9 12 1014.6 1015.6 0.0
27/03:00pm 7.4 1.9 0.4 61 2.9 WSW 19 24 10 13 1014.5 1015.5 0.0
27/02:30pm 7.5 1.8 0.3 60 3.0 WSW 20 28 11 15 1014.2 1015.2 0.0
27/02:00pm 8.0 2.7 -0.5 55 3.5 WSW 17 24 9 13 1014.1 1015.1 0.0
27/01:30pm 7.7 2.5 0.4 60 3.0 WSW 17 24 9 13 1014.0 1015.0 0.0
27/01:00pm 6.8 2.0 0.0 62 2.8 WSW 15 24 8 13 1014.1 1015.1 0.0
27/12:30pm 5.6 2.3 2.3 79 1.4 WSW 9 13 5 7 1014.5 1015.5 0.0
27/12:00pm 5.1 2.1 3.9 92 0.5 WSW 9 15 5 8 1014.8 1015.8 0.0
27/11:30am 4.1 2.8 4.0 99 0.0 CALM 0 2 0 1 1015.1 1016.2 0.0
27/11:00am 2.7 0.4 2.7 100 0.0 NE 4 6 2 3 1015.4 1016.4 0.0
27/10:30am 1.3 -0.9 1.3 100 0.0 NE 2 4 1 2 1015.6 1016.6 0.0
27/10:00am 0.2 -1.8 0.2 100 0.0 CALM 0 0 0 0 1015.7 1016.7 0.0
27/09:30am -0.6 -2.7 -0.6 100 0.0 CALM 0 0 0 0 1015.5 1016.5 0.0
27/09:00am -1.0 -3.1 -1.0 100 0.0 CALM 0 0 0 0 1015.4 1016.4 0.0
27/08:30am -1.0 -3.1 -1.0 100 0.0 CALM 0 0 0 0 1015.1 1016.2 0.0
27/08:00am -1.5 -3.7 -1.5 100 0.0 CALM 0 0 0 0 1014.9 1015.9 0.0
27/07:30am -1.7 -3.9 -1.7 100 0.0 CALM 0 0 0 0 1014.8 1015.8 0.0
27/07:00am -1.4 -3.6 -1.4 100 0.0 CALM 0 2 0 1 1014.5 1015.5 0.0
27/06:30am -1.6 -4.6 -1.6 100 0.0 E 4 6 2 3 1014.3 1015.3 0.0
27/06:00am -1.5 -3.7 -1.5 100 0.0 CALM 0 4 0 2 1014.1 1015.1 0.0
27/05:30am -1.2 -4.1 -1.2 100 0.0 E 4 4 2 2 1014.0 1015.0 0.0
27/05:00am -1.0 -4.3 -1.0 100 0.0 ESE 6 6 3 3 1013.7 1014.7 0.0
27/04:30am -0.9 -3.0 -0.9 100 0.0 CALM 0 0 0 0 1013.7 1014.7 0.0
27/04:00am -0.8 -3.7 -0.8 100 0.0 WNW 4 6 2 3 1013.8 1014.9 0.0
27/03:30am -0.9 -4.2 -0.9 100 0.0 WNW 6 7 3 4 1014.2 1015.2 0.0
27/03:00am -0.8 -4.2 -0.8 100 0.0 N 7 9 4 5 1014.2 1015.2 0.0
27/02:30am -1.0 -3.9 -1.0 100 0.0 N 4 4 2 2 1014.4 1015.4 0.0
27/02:00am -1.2 -4.1 -1.2 100 0.0 NNW 4 6 2 3 1014.4 1015.4 0.0
27/01:30am -0.9 -4.2 -0.9 100 0.0 WNW 6 7 3 4 1014.4 1015.4 0.0
27/01:00am -0.8 -3.7 -0.8 100 0.0 WNW 4 6 2 3 1014.2 1015.2 0.0
27/12:30am -0.8 -3.7 -0.8 100 0.0 WNW 4 6 2 3 1014.3 1015.3 0.0
27/12:00am -0.3 -2.7 -0.3 100 0.0 WNW 2 4 1 2 1014.6 1015.6 0.0
 
Date/Time
EST
Temp
°C
App
Temp
°C
Dew
Point
°C
Rel
Hum
%
Delta-T
°C
Wind Press
QNH
hPa
Press
MSL
hPa
Rain since
9am
mm
Dir  Spd
km/h
Gust
km/h
Spd
kts
Gust
kts
26/11:30pm -0.1 -2.1 -0.1 100 0.0 CALM 0 0 0 0 1014.7 1015.7 0.0
26/11:00pm 0.0 -2.0 0.0 100 0.0 CALM 0 0 0 0 1014.8 1015.8 0.0
26/10:30pm 0.5 -1.4 0.5 100 0.0 CALM 0 0 0 0 1015.0 1016.1 0.0
26/10:00pm 0.6 -1.3 0.6 100 0.0 CALM 0 0 0 0 1015.1 1016.2 0.0
26/09:30pm 0.4 -1.5 0.4 100 0.0 CALM 0 0 0 0 1015.4 1016.4 0.0
26/09:00pm 1.5 -0.3 1.5 100 0.0 CALM 0 0 0 0 1015.7 1016.7 0.0
26/08:30pm 1.9 0.2 1.9 100 0.0 CALM 0 0 0 0 1015.9 1016.9 0.0
26/08:00pm 3.1 1.6 3.1 100 0.0 CALM 0 0 0 0 1016.0 1017.0 0.0
26/07:30pm 2.6 1.0 2.6 100 0.0 CALM 0 0 0 0 1016.0 1017.0 0.0
26/07:00pm 2.6 1.0 2.6 100 0.0 CALM 0 2 0 1 1015.8 1016.8 0.0
26/06:30pm 4.1 2.8 4.0 99 0.0 CALM 0 0 0 0 1015.9 1016.9 0.0
26/06:00pm 5.0 3.7 4.3 95 0.3 CALM 0 0 0 0 1015.7 1016.7 0.0
26/05:30pm 5.4 3.9 3.1 85 1.0 CALM 0 0 0 0 1015.6 1016.6 0.0

Other Formats:

Comma delimited format used in spreadsheet applications
http://www.bom.gov.au/fwo/IDN60801/IDN60801.94929.axf

JavaScript Object Notation format (JSON) in row-major order
http://www.bom.gov.au/fwo/IDN60801/IDN60801.94929.json